Time;durP1;ratioP1;P1;durP2;ratioP2;P2;SDS_P1;SDS_P2;PMS_P1;PMS_P2;Temp;Humidity;BMP_temperature;BMP_pressure;BME280_temperature;BME280_humidity;BME280_pressure;Samples;Min_cycle;Max_cycle;Signal;HPM_P1;HPM_P2
2021/05/23 00:02:12;;;;;;;11.40;7.22;;;15.10;76.00;;;;;;5053961;28;20033;-73
2021/05/23 00:04:38;;;;;;;11.82;7.32;;;15.10;76.10;;;;;;5049673;28;20438;-73
2021/05/23 00:07:05;;;;;;;14.60;7.80;;;15.10;76.20;;;;;;5047712;28;20108;-73
2021/05/23 00:09:31;;;;;;;11.02;6.50;;;15.10;76.10;;;;;;5054570;28;20100;-73
2021/05/23 00:11:57;;;;;;;13.30;7.25;;;15.10;76.10;;;;;;5048563;28;20490;-73
2021/05/23 00:14:22;;;;;;;11.40;7.13;;;15.20;76.70;;;;;;5052346;28;20463;-73
2021/05/23 00:16:49;;;;;;;10.85;6.30;;;15.10;76.10;;;;;;5043481;28;20036;-73
2021/05/23 00:19:15;;;;;;;14.60;6.50;;;15.10;76.00;;;;;;5051904;28;20044;-73
2021/05/23 00:21:41;;;;;;;12.60;6.85;;;15.10;75.90;;;;;;5060628;28;20032;-73
2021/05/23 00:24:09;;;;;;;19.52;6.88;;;15.10;76.00;;;;;;5047940;28;20537;-73
2021/05/23 00:26:37;;;;;;;11.13;6.82;;;15.10;76.00;;;;;;5066825;28;20044;-73
2021/05/23 00:29:06;;;;;;;13.23;7.63;;;15.10;76.00;;;;;;5048833;28;20049;-74
2021/05/23 00:31:33;;;;;;;16.92;8.88;;;15.00;76.10;;;;;;5055088;28;20469;-73
2021/05/23 00:33:59;;;;;;;11.98;7.18;;;15.10;76.10;;;;;;5052157;28;20112;-73
2021/05/23 00:36:25;;;;;;;15.52;7.63;;;15.10;76.20;;;;;;5055142;28;20035;-73
2021/05/23 00:38:51;;;;;;;14.25;8.23;;;15.10;76.30;;;;;;5059533;28;20107;-73
2021/05/23 00:41:17;;;;;;;12.93;7.45;;;15.10;76.30;;;;;;5067877;28;20423;-73
2021/05/23 00:43:43;;;;;;;14.73;7.35;;;15.10;76.20;;;;;;5051832;28;20036;-73
2021/05/23 00:46:09;;;;;;;15.65;7.93;;;15.10;76.20;;;;;;5053585;28;20025;-73
2021/05/23 00:48:34;;;;;;;13.40;7.78;;;15.00;76.80;;;;;;5059789;28;20047;-72
2021/05/23 00:51:00;;;;;;;14.55;8.43;;;15.00;76.20;;;;;;5057410;28;20447;-73
2021/05/23 00:53:26;;;;;;;15.38;8.30;;;15.00;76.10;;;;;;5062922;28;20079;-73
2021/05/23 00:55:52;;;;;;;13.25;7.93;;;15.00;76.10;;;;;;5052832;28;20476;-72
2021/05/23 00:58:20;;;;;;;18.15;7.85;;;15.00;76.00;;;;;;5066358;28;20041;-72
2021/05/23 01:00:46;;;;;;;13.55;7.65;;;14.90;76.00;;;;;;5051404;28;20101;-73
2021/05/23 01:03:27;;;;;;;14.05;8.05;;;14.90;76.00;;;;;;5060203;28;20060;-73
2021/05/23 01:06:05;;;;;;;11.60;7.53;;;14.80;76.30;;;;;;5067557;28;20040;-72
2021/05/23 01:08:32;;;;;;;15.90;8.55;;;14.80;76.20;;;;;;5052808;28;20036;-73
2021/05/23 01:11:16;;;;;;;15.68;8.32;;;14.90;76.30;;;;;;5051255;28;20036;-73
2021/05/23 01:14:11;;;;;;;14.57;7.60;;;14.80;76.70;;;;;;5044322;28;20029;-73
2021/05/23 01:16:44;;;;;;;14.13;7.38;;;14.80;76.70;;;;;;5022209;28;20055;-73
2021/05/23 01:19:13;;;;;;;12.85;8.45;;;14.80;76.40;;;;;;5042432;28;20033;-73
2021/05/23 01:21:44;;;;;;;15.80;8.10;;;14.80;76.40;;;;;;5044567;28;20051;-73
2021/05/23 01:24:25;;;;;;;11.88;6.55;;;14.80;76.40;;;;;;5046079;28;20051;-73
2021/05/23 01:26:53;;;;;;;12.63;7.55;;;14.70;76.70;;;;;;5059533;28;20044;-73
2021/05/23 01:29:21;;;;;;;14.55;7.38;;;14.80;76.60;;;;;;5048674;28;20037;-73
2021/05/23 01:31:47;;;;;;;11.88;7.05;;;14.80;76.70;;;;;;5050011;28;20070;-73
2021/05/23 01:34:22;;;;;;;11.57;6.70;;;14.80;76.60;;;;;;5051025;28;20110;-73
2021/05/23 01:36:51;;;;;;;13.95;7.95;;;14.70;76.60;;;;;;5051624;28;20025;-73
2021/05/23 01:39:18;;;;;;;11.98;7.00;;;14.70;76.40;;;;;;5052300;28;20068;-73
2021/05/23 01:41:45;;;;;;;11.80;7.47;;;14.80;76.40;;;;;;5055075;28;20021;-74
2021/05/23 01:44:11;;;;;;;11.55;6.93;;;14.80;76.50;;;;;;5041771;28;20459;-73
2021/05/23 01:46:38;;;;;;;11.52;7.47;;;14.80;76.60;;;;;;5051644;28;20033;-73
2021/05/23 01:49:04;;;;;;;10.95;7.22;;;14.80;76.50;;;;;;5057891;28;20131;-73
2021/05/23 01:51:30;;;;;;;13.15;6.72;;;14.80;76.60;;;;;;5067156;28;20035;-73
2021/05/23 01:53:58;;;;;;;14.45;6.50;;;14.80;77.20;;;;;;5049651;28;20029;-73
2021/05/23 01:56:23;;;;;;;10.27;6.75;;;14.80;76.70;;;;;;5053291;28;20029;-73
2021/05/23 01:58:49;;;;;;;13.15;6.57;;;14.80;76.70;;;;;;5044800;28;20033;-73
2021/05/23 02:01:15;;;;;;;11.02;6.03;;;14.80;76.60;;;;;;5052894;28;20434;-73
2021/05/23 02:03:41;;;;;;;16.38;7.18;;;14.70;76.50;;;;;;5054455;28;20106;-73
2021/05/23 02:06:07;;;;;;;14.20;6.05;;;14.70;76.40;;;;;;5058879;28;20041;-73
2021/05/23 02:08:33;;;;;;;11.65;6.68;;;14.70;76.30;;;;;;5045417;28;20121;-73
2021/05/23 02:11:07;;;;;;;10.68;7.03;;;14.70;76.20;;;;;;5050563;28;20108;-73
2021/05/23 02:13:33;;;;;;;;;;;14.60;76.20;;;;;;5052912;28;20021;-73
2021/05/23 02:15:59;;;;;;;10.38;5.93;;;14.70;76.10;;;;;;5069046;28;19934;-73
2021/05/23 02:18:25;;;;;;;13.48;6.53;;;14.70;75.80;;;;;;5053377;28;20475;-73
2021/05/23 02:20:51;;;;;;;14.00;6.55;;;14.60;76.00;;;;;;5054222;28;20044;-73
2021/05/23 02:23:20;;;;;;;14.27;8.70;;;14.60;76.20;;;;;;5049685;28;20039;-73
2021/05/23 02:25:46;;;;;;;12.40;7.65;;;14.50;76.30;;;;;;5055257;28;20035;-73
2021/05/23 02:28:13;;;;;;;13.07;6.82;;;14.60;76.50;;;;;;5048604;28;20060;-73
2021/05/23 02:30:45;;;;;;;16.42;7.85;;;14.60;76.40;;;;;;5060630;28;20645;-73
2021/05/23 02:33:13;;;;;;;13.07;6.90;;;14.60;76.50;;;;;;5061614;28;20024;-73
2021/05/23 02:35:47;;;;;;;15.68;7.82;;;14.60;76.50;;;;;;5057434;28;20085;-72
2021/05/23 02:38:15;;;;;;;13.02;7.32;;;14.60;76.60;;;;;;5051035;28;20119;-73
2021/05/23 02:40:42;;;;;;;13.68;6.97;;;14.50;76.60;;;;;;5053155;28;20060;-73
2021/05/23 02:43:10;;;;;;;12.27;6.88;;;14.60;76.70;;;;;;5051350;28;20117;-73
2021/05/23 02:45:37;;;;;;;14.57;7.85;;;14.60;76.80;;;;;;5050980;28;20036;-73
2021/05/23 02:48:04;;;;;;;11.88;7.32;;;14.60;76.90;;;;;;5051109;28;20124;-72
2021/05/23 02:50:32;;;;;;;14.13;7.88;;;14.60;76.90;;;;;;5057214;28;20505;-73
2021/05/23 02:52:59;;;;;;;13.90;8.55;;;14.50;76.90;;;;;;5048575;28;20033;-73
2021/05/23 02:55:25;;;;;;;13.90;8.90;;;14.60;77.00;;;;;;5051138;28;20458;-73
2021/05/23 02:57:52;;;;;;;15.68;8.93;;;14.50;76.90;;;;;;5060970;28;20062;-72
2021/05/23 03:00:21;;;;;;;15.98;9.23;;;14.50;77.00;;;;;;5055325;28;20048;-72
2021/05/23 03:02:47;;;;;;;13.23;8.68;;;14.50;77.10;;;;;;5050388;28;20033;-72
2021/05/23 03:05:16;;;;;;;15.55;9.35;;;14.50;77.10;;;;;;5048697;28;20041;-72
2021/05/23 03:07:47;;;;;;;18.50;10.10;;;14.50;77.30;;;;;;5049010;28;20041;-72
2021/05/23 03:10:15;;;;;;;13.85;8.68;;;14.50;77.40;;;;;;5048543;28;20120;-72
2021/05/23 03:12:42;;;;;;;14.95;9.07;;;14.40;77.30;;;;;;5048152;28;20032;-72
2021/05/23 03:15:11;;;;;;;15.23;10.02;;;14.40;77.40;;;;;;5025625;28;20136;-72
2021/05/23 03:17:37;;;;;;;14.57;9.70;;;14.40;77.40;;;;;;5058613;28;21160;-75
2021/05/23 03:20:05;;;;;;;13.45;9.52;;;14.40;77.50;;;;;;5052408;28;20029;-75
2021/05/23 03:22:31;;;;;;;16.00;10.93;;;14.40;77.50;;;;;;5053956;28;20064;-74
2021/05/23 03:24:57;;;;;;;19.55;10.75;;;14.40;77.60;;;;;;5058278;28;20346;-74
2021/05/23 03:27:23;;;;;;;15.18;10.23;;;14.30;77.60;;;;;;5050262;28;20029;-75
2021/05/23 03:29:48;;;;;;;15.27;9.88;;;14.30;77.60;;;;;;5047547;28;20051;-75
2021/05/23 03:32:14;;;;;;;16.73;10.73;;;14.30;77.80;;;;;;5054040;28;20063;-75
2021/05/23 03:34:39;;;;;;;18.63;10.88;;;14.30;77.80;;;;;;5049883;28;20060;-72
2021/05/23 03:37:05;;;;;;;13.45;8.77;;;14.30;77.90;;;;;;5048633;28;20174;-72
2021/05/23 03:39:31;;;;;;;15.32;9.93;;;14.30;77.90;;;;;;5050391;28;20522;-72
2021/05/23 03:41:56;;;;;;;17.50;11.80;;;14.30;78.00;;;;;;5060527;28;20061;-73
2021/05/23 03:44:22;;;;;;;15.43;10.90;;;14.30;78.00;;;;;;5045025;28;20502;-72
2021/05/23 03:46:48;;;;;;;18.85;12.20;;;14.30;78.00;;;;;;5045453;28;20418;-73
2021/05/23 03:49:13;;;;;;;18.27;12.70;;;14.40;78.10;;;;;;5046707;28;20078;-72
2021/05/23 03:51:39;;;;;;;15.10;10.25;;;14.40;78.10;;;;;;5045770;28;20056;-72
2021/05/23 03:54:07;;;;;;;19.33;12.00;;;14.40;78.10;;;;;;5053894;28;20033;-72
2021/05/23 03:56:33;;;;;;;18.75;13.45;;;14.40;78.20;;;;;;5048511;28;20043;-72
2021/05/23 03:58:58;;;;;;;21.05;12.55;;;14.50;78.30;;;;;;5049100;28;20100;-72
2021/05/23 04:01:24;;;;;;;18.55;12.55;;;14.40;78.30;;;;;;5056708;28;20041;-72
2021/05/23 04:03:55;;;;;;;15.82;11.07;;;14.50;78.40;;;;;;5051350;28;20509;-73
2021/05/23 04:06:21;;;;;;;18.13;12.80;;;14.50;78.40;;;;;;5060951;28;20520;-72
2021/05/23 04:08:47;;;;;;;20.75;13.25;;;14.50;78.50;;;;;;5052127;28;20127;-72
2021/05/23 04:11:16;;;;;;;19.92;12.75;;;14.50;78.60;;;;;;5059562;28;20110;-72
2021/05/23 04:13:42;;;;;;;17.65;12.90;;;14.50;78.60;;;;;;5063689;28;20025;-72
2021/05/23 04:16:12;;;;;;;19.83;12.35;;;14.60;78.70;;;;;;5056090;28;20056;-72
2021/05/23 04:18:38;;;;;;;21.15;13.93;;;14.50;78.80;;;;;;5064352;28;20451;-72
2021/05/23 04:21:04;;;;;;;20.85;13.73;;;14.60;78.70;;;;;;5066962;28;20048;-72
2021/05/23 04:23:30;;;;;;;19.75;13.13;;;14.60;78.80;;;;;;5057158;28;20139;-72
2021/05/23 04:25:56;;;;;;;18.50;13.50;;;14.60;78.80;;;;;;5055690;28;20055;-73
2021/05/23 04:28:21;;;;;;;19.50;14.73;;;14.70;78.90;;;;;;5064948;28;20121;-73
2021/05/23 04:30:47;;;;;;;20.48;13.73;;;14.70;79.00;;;;;;5062521;28;20446;-72
2021/05/23 04:33:13;;;;;;;20.15;15.98;;;14.70;79.10;;;;;;5057797;28;20129;-72
2021/05/23 04:35:39;;;;;;;21.73;15.48;;;14.70;79.20;;;;;;5054858;28;20456;-72
2021/05/23 04:38:05;;;;;;;21.48;16.73;;;14.70;79.30;;;;;;5073249;28;20052;-72
2021/05/23 04:40:31;;;;;;;22.17;16.13;;;14.70;79.40;;;;;;5051836;28;20537;-72
2021/05/23 04:42:57;;;;;;;24.13;17.00;;;14.70;79.50;;;;;;5071733;28;20029;-72
2021/05/23 04:45:23;;;;;;;24.23;18.35;;;14.70;79.50;;;;;;5060246;28;20068;-72
2021/05/23 04:47:50;;;;;;;22.95;16.65;;;14.70;79.60;;;;;;5066521;28;20083;-73
2021/05/23 04:50:16;;;;;;;25.60;17.50;;;14.70;79.70;;;;;;5053235;28;20025;-72
2021/05/23 04:52:42;;;;;;;23.65;17.60;;;14.70;79.70;;;;;;5053735;28;20438;-72
2021/05/23 04:55:09;;;;;;;27.63;19.05;;;14.80;79.80;;;;;;5054461;28;20043;-72
2021/05/23 04:57:35;;;;;;;28.92;21.30;;;14.80;79.90;;;;;;5056939;28;20439;-73
2021/05/23 05:00:01;;;;;;;26.77;19.42;;;14.80;80.00;;;;;;5053916;28;20052;-73
2021/05/23 05:02:27;;;;;;;29.02;21.83;;;14.90;80.10;;;;;;5050982;28;20033;-72
2021/05/23 05:04:53;;;;;;;34.90;25.98;;;14.90;80.00;;;;;;5055361;28;20037;-72
2021/05/23 05:07:18;;;;;;;30.33;22.98;;;15.00;80.00;;;;;;5060519;28;20110;-73
2021/05/23 05:09:44;;;;;;;33.70;23.30;;;15.00;80.10;;;;;;5071921;28;20052;-73
2021/05/23 05:12:10;;;;;;;32.97;25.58;;;15.00;80.20;;;;;;5054790;28;20583;-72
2021/05/23 05:14:36;;;;;;;34.30;25.60;;;15.00;80.10;;;;;;5049455;28;20071;-72
2021/05/23 05:17:02;;;;;;;34.90;26.65;;;15.10;80.10;;;;;;5064477;28;20102;-74
2021/05/23 05:19:28;;;;;;;39.50;25.58;;;15.20;80.10;;;;;;5052488;28;20043;-74
2021/05/23 05:21:54;;;;;;;34.78;25.77;;;15.30;80.00;;;;;;5064456;28;20028;-75
2021/05/23 05:24:20;;;;;;;35.58;25.70;;;15.40;80.00;;;;;;5051932;28;20538;-74
2021/05/23 05:26:46;;;;;;;36.42;27.00;;;15.40;79.70;;;;;;5052871;28;20040;-75
2021/05/23 05:29:11;;;;;;;35.00;25.92;;;15.40;79.60;;;;;;5053470;28;20098;-74
2021/05/23 05:31:37;;;;;;;38.15;29.27;;;15.40;79.60;;;;;;5055392;28;20416;-75
2021/05/23 05:34:03;;;;;;;39.63;30.50;;;15.40;79.60;;;;;;5069324;28;20129;-74
2021/05/23 05:36:29;;;;;;;38.53;29.20;;;15.30;79.60;;;;;;5059536;28;20024;-75
2021/05/23 05:38:55;;;;;;;38.35;28.75;;;15.20;79.70;;;;;;5065488;28;20382;-74
2021/05/23 05:41:21;;;;;;;35.00;26.50;;;15.10;79.80;;;;;;5042766;28;20033;-75
2021/05/23 05:43:47;;;;;;;36.90;26.50;;;15.10;79.80;;;;;;5059799;28;20118;-75
2021/05/23 05:46:13;;;;;;;33.33;26.25;;;15.00;79.70;;;;;;5066879;28;20039;-74
2021/05/23 05:48:39;;;;;;;34.08;25.35;;;15.00;79.70;;;;;;5059577;28;20119;-75
2021/05/23 05:51:05;;;;;;;34.70;25.35;;;15.00;80.00;;;;;;5065483;28;20028;-74
2021/05/23 05:53:30;;;;;;;31.10;24.55;;;15.00;79.90;;;;;;5057477;28;20032;-74
2021/05/23 05:55:56;;;;;;;39.65;28.05;;;15.00;80.00;;;;;;5060197;28;20398;-75
2021/05/23 05:58:22;;;;;;;33.58;26.92;;;15.10;80.00;;;;;;5068903;28;20122;-74
2021/05/23 06:00:48;;;;;;;33.17;24.30;;;15.00;79.90;;;;;;5051956;28;20033;-74
2021/05/23 06:03:13;;;;;;;34.33;25.90;;;15.20;80.00;;;;;;5063090;28;20082;-74
2021/05/23 06:05:39;;;;;;;35.47;25.00;;;15.20;79.90;;;;;;5052642;28;20144;-74
2021/05/23 06:08:05;;;;;;;36.30;27.20;;;15.30;80.00;;;;;;5068168;28;20040;-73
2021/05/23 06:10:30;;;;;;;36.83;27.67;;;15.30;79.80;;;;;;5062441;28;20529;-74
2021/05/23 06:12:56;;;;;;;36.38;28.77;;;15.30;79.70;;;;;;5067572;28;20074;-74
2021/05/23 06:15:22;;;;;;;33.40;25.02;;;15.30;79.80;;;;;;5030867;28;20154;-74
2021/05/23 06:17:48;;;;;;;33.20;26.27;;;15.40;79.90;;;;;;5069540;28;20039;-74
2021/05/23 06:20:14;;;;;;;32.85;25.27;;;15.40;79.80;;;;;;5065194;28;20340;-74
2021/05/23 06:22:39;;;;;;;38.10;25.55;;;15.40;79.70;;;;;;5040566;28;20213;-74
2021/05/23 06:25:07;;;;;;;34.67;25.45;;;15.40;79.70;;;;;;5056893;28;20615;-74
2021/05/23 06:27:33;;;;;;;37.95;27.65;;;15.40;79.70;;;;;;5053503;28;20033;-73
2021/05/23 06:29:59;;;;;;;30.60;24.40;;;15.40;79.50;;;;;;5055411;28;20045;-73
2021/05/23 06:32:24;;;;;;;31.75;22.73;;;15.20;79.50;;;;;;5064281;28;20032;-72
2021/05/23 06:34:50;;;;;;;32.20;22.63;;;15.30;79.50;;;;;;5061397;28;20102;-75
2021/05/23 06:37:16;;;;;;;27.70;21.08;;;15.20;79.40;;;;;;5056820;28;20473;-74
2021/05/23 06:39:42;;;;;;;26.23;19.83;;;15.20;79.30;;;;;;5053967;28;20064;-76
2021/05/23 06:42:08;;;;;;;22.55;17.90;;;15.20;79.30;;;;;;5048520;28;20474;-73
2021/05/23 06:44:33;;;;;;;26.75;18.20;;;15.20;79.20;;;;;;5056579;28;20036;-74
2021/05/23 06:46:59;;;;;;;24.42;17.25;;;15.30;79.10;;;;;;5047753;28;20100;-73
2021/05/23 06:49:25;;;;;;;21.75;15.63;;;15.30;79.10;;;;;;5042266;28;20041;-74
2021/05/23 06:51:50;;;;;;;19.67;14.73;;;15.30;78.90;;;;;;5043996;28;20033;-74
2021/05/23 06:54:16;;;;;;;22.73;14.82;;;15.20;78.50;;;;;;5049937;28;20044;-71
2021/05/23 06:56:41;;;;;;;31.63;16.27;;;15.30;78.50;;;;;;5055643;28;20032;-74
2021/05/23 06:59:07;;;;;;;18.02;13.65;;;15.20;77.90;;;;;;5049566;28;20103;-74
2021/05/23 07:01:33;;;;;;;31.27;13.02;;;15.10;78.20;;;;;;5046111;28;20070;-74
2021/05/23 07:03:59;;;;;;;18.88;12.77;;;15.10;78.40;;;;;;5050919;28;20021;-74
2021/05/23 07:06:28;;;;;;;21.17;13.50;;;15.20;78.50;;;;;;5038002;28;20039;-73
2021/05/23 07:08:53;;;;;;;24.55;12.68;;;15.20;78.20;;;;;;5045549;28;20507;-73
2021/05/23 07:11:19;;;;;;;20.80;12.38;;;15.20;78.00;;;;;;5041706;28;20047;-74
2021/05/23 07:13:44;;;;;;;24.25;13.77;;;15.20;77.80;;;;;;5043140;28;20101;-74
2021/05/23 07:16:10;;;;;;;19.13;11.18;;;15.20;77.80;;;;;;5045894;28;20055;-73
2021/05/23 07:18:38;;;;;;;18.33;12.15;;;15.20;77.90;;;;;;5047672;28;20117;-74
2021/05/23 07:21:04;;;;;;;18.65;11.30;;;15.20;77.80;;;;;;5041006;28;20054;-74
2021/05/23 07:23:30;;;;;;;20.45;10.90;;;15.20;77.70;;;;;;5037791;28;21666;-73
2021/05/23 07:25:56;;;;;;;15.77;10.52;;;15.20;77.70;;;;;;5047908;28;20060;-76
2021/05/23 07:28:23;;;;;;;19.02;11.00;;;15.20;77.70;;;;;;5050534;28;20166;-72
2021/05/23 07:30:48;;;;;;;26.48;11.65;;;15.30;77.60;;;;;;5018680;28;20379;-74
2021/05/23 07:33:15;;;;;;;16.38;11.02;;;15.30;77.40;;;;;;5034886;28;20138;-76
2021/05/23 07:35:42;;;;;;;17.98;11.23;;;15.40;77.20;;;;;;5045895;28;20029;-73
2021/05/23 07:38:07;;;;;;;18.17;11.43;;;15.30;76.50;;;;;;5034919;28;20032;-72
2021/05/23 07:40:34;;;;;;;18.90;11.27;;;15.20;76.40;;;;;;5043947;28;20066;-74
2021/05/23 07:43:02;;;;;;;17.38;10.65;;;15.20;76.60;;;;;;5035178;28;20033;-71
2021/05/23 07:45:29;;;;;;;17.35;10.18;;;15.30;76.80;;;;;;5045670;28;20095;-72
2021/05/23 07:47:55;;;;;;;17.27;9.93;;;15.40;76.60;;;;;;5047023;28;20071;-72
2021/05/23 07:50:20;;;;;;;16.35;10.35;;;15.40;76.30;;;;;;5049118;28;20114;-72
2021/05/23 07:52:46;;;;;;;27.10;10.13;;;15.50;75.70;;;;;;5047410;28;20071;-75
2021/05/23 07:55:13;;;;;;;18.33;9.80;;;15.50;75.40;;;;;;5059681;28;20028;-70
2021/05/23 07:57:38;;;;;;;15.70;9.27;;;15.60;74.60;;;;;;5044363;28;20037;-70
2021/05/23 08:00:06;;;;;;;14.57;9.00;;;15.60;74.60;;;;;;5053943;28;20044;-72
2021/05/23 08:02:31;;;;;;;17.58;9.25;;;15.60;74.60;;;;;;5044334;28;20098;-74
2021/05/23 08:04:57;;;;;;;15.43;8.55;;;15.60;74.40;;;;;;5042277;28;20418;-73
2021/05/23 08:07:23;;;;;;;18.23;9.82;;;15.50;74.50;;;;;;5043680;28;20033;-72
2021/05/23 08:09:49;;;;;;;13.40;9.00;;;15.50;74.50;;;;;;5045341;28;20048;-74
2021/05/23 08:12:15;;;;;;;12.63;8.02;;;15.50;74.40;;;;;;5050930;28;20048;-72
2021/05/23 08:14:41;;;;;;;14.98;8.15;;;15.50;74.30;;;;;;5043774;28;20029;-73
2021/05/23 08:17:07;;;;;;;10.25;6.68;;;15.60;74.40;;;;;;5045898;28;20079;-72
2021/05/23 08:19:32;;;;;;;13.88;7.32;;;15.60;73.80;;;;;;5031151;28;21961;-73
2021/05/23 08:21:58;;;;;;;12.88;7.28;;;15.70;73.80;;;;;;5047023;28;20559;-72
2021/05/23 08:24:24;;;;;;;12.23;7.82;;;15.80;73.70;;;;;;5049798;28;20884;-73
2021/05/23 08:26:49;;;;;;;11.05;6.90;;;15.80;73.30;;;;;;5043531;28;20033;-71
2021/05/23 08:29:15;;;;;;;14.32;8.35;;;15.80;73.40;;;;;;5046165;28;20067;-72
2021/05/23 08:31:41;;;;;;;12.57;7.55;;;15.70;72.90;;;;;;5037209;28;20076;-72
2021/05/23 08:34:07;;;;;;;16.00;7.95;;;15.60;73.40;;;;;;5044065;28;20032;-72
2021/05/23 08:36:32;;;;;;;13.70;8.20;;;15.50;73.40;;;;;;5044153;28;20071;-73
2021/05/23 08:38:58;;;;;;;15.90;8.90;;;15.60;73.60;;;;;;5047680;28;20033;-74
2021/05/23 08:41:24;;;;;;;12.65;9.65;;;15.80;73.10;;;;;;5047985;28;20029;-73
2021/05/23 08:43:51;;;;;;;15.15;9.68;;;16.10;72.90;;;;;;5048798;28;20047;-71
2021/05/23 08:46:18;;;;;;;21.20;10.60;;;16.30;71.60;;;;;;5036541;28;20040;-73
2021/05/23 08:48:43;;;;;;;13.55;9.23;;;16.40;70.20;;;;;;5053078;28;20040;-73
2021/05/23 08:51:10;;;;;;;12.38;8.23;;;16.30;70.00;;;;;;5038338;28;20036;-74
2021/05/23 08:53:36;;;;;;;13.25;7.18;;;16.40;69.90;;;;;;5050902;28;20071;-70
2021/05/23 08:56:02;;;;;;;10.85;7.20;;;16.60;69.30;;;;;;5038486;28;20068;-73
2021/05/23 08:58:28;;;;;;;16.73;7.82;;;16.70;69.20;;;;;;5050480;28;20036;-71
2021/05/23 09:00:54;;;;;;;10.40;6.88;;;16.80;68.40;;;;;;5047769;28;20036;-73
2021/05/23 09:03:20;;;;;;;10.93;5.85;;;16.80;67.70;;;;;;5038456;28;20047;-73
2021/05/23 09:05:55;;;;;;;9.60;5.88;;;16.70;67.80;;;;;;5050282;28;20025;-75
2021/05/23 09:08:22;;;;;;;19.00;7.10;;;16.60;68.00;;;;;;5050028;28;21512;-74
2021/05/23 09:10:50;;;;;;;9.25;4.97;;;16.50;68.20;;;;;;5046668;28;20037;-72
2021/05/23 09:13:36;;;;;;;8.43;4.93;;;16.50;68.30;;;;;;5047115;28;20525;-73
2021/05/23 09:16:03;;;;;;;8.88;4.53;;;16.70;68.10;;;;;;5049225;28;20052;-73
2021/05/23 09:18:47;;;;;;;13.45;5.30;;;16.90;67.00;;;;;;5056254;28;20760;-73
2021/05/23 09:21:15;;;;;;;8.18;3.88;;;16.90;66.80;;;;;;5052048;28;20029;-71
2021/05/23 09:23:46;;;;;;;9.05;4.07;;;17.00;65.80;;;;;;5049513;28;20106;-71
2021/05/23 09:26:20;;;;;;;11.57;4.32;;;16.90;65.20;;;;;;5047584;28;20391;-71
2021/05/23 09:28:46;;;;;;;9.52;3.65;;;16.80;65.10;;;;;;5046751;28;20045;-71
2021/05/23 09:31:15;;;;;;;8.75;3.67;;;16.80;64.80;;;;;;5047925;28;20110;-70
2021/05/23 09:33:47;;;;;;;7.30;2.72;;;16.90;63.70;;;;;;5046708;28;20032;-71
2021/05/23 09:36:14;;;;;;;5.88;2.50;;;17.20;63.90;;;;;;5049777;28;20342;-71
2021/05/23 09:38:56;;;;;;;8.23;2.45;;;17.60;60.90;;;;;;5050587;28;20074;-71
2021/05/23 09:41:29;;;;;;;7.90;2.10;;;17.60;58.10;;;;;;5048317;28;20025;-71
2021/05/23 09:44:21;;;;;;;6.77;1.97;;;17.70;57.10;;;;;;5060493;28;20507;-71
2021/05/23 09:46:53;;;;;;;7.15;1.95;;;18.00;55.50;;;;;;5048467;28;20625;-71
2021/05/23 09:49:20;;;;;;;8.27;2.10;;;18.40;55.00;;;;;;5061596;28;20032;-69
2021/05/23 09:52:00;;;;;;;7.43;1.85;;;18.50;52.80;;;;;;5053155;28;20050;-69
2021/05/23 09:54:29;;;;;;;6.50;1.80;;;18.70;52.10;;;;;;5047142;28;20025;-70
2021/05/23 09:56:55;;;;;;;4.43;1.50;;;19.10;49.60;;;;;;5048755;28;20029;-69
2021/05/23 09:59:26;;;;;;;3.63;1.40;;;19.40;50.70;;;;;;5047022;28;20125;-69
2021/05/23 10:02:04;;;;;;;7.03;1.67;;;19.80;50.50;;;;;;5049655;28;20025;-70
2021/05/23 10:04:29;;;;;;;6.15;2.20;;;20.20;50.00;;;;;;5046793;28;20024;-73
2021/05/23 10:07:05;;;;;;;4.32;1.70;;;20.60;49.70;;;;;;5047956;28;20399;-78
2021/05/23 10:09:31;;;;;;;6.28;2.13;;;21.00;48.80;;;;;;5050972;28;20040;-75
2021/05/23 10:11:58;;;;;;;5.68;1.60;;;21.40;48.90;;;;;;5052929;28;20020;-79
2021/05/23 10:14:30;;;;;;;7.65;2.20;;;21.80;46.20;;;;;;5051120;28;20053;-74
2021/05/23 10:17:00;;;;;;;5.35;1.98;;;22.00;45.40;;;;;;5047171;28;20106;-74
2021/05/23 10:19:31;;;;;;;7.05;1.92;;;22.20;45.70;;;;;;5038400;28;20064;-76
2021/05/23 10:22:00;;;;;;;6.32;2.13;;;22.50;43.90;;;;;;5053653;28;20029;-74
2021/05/23 10:24:55;;;;;;;4.90;1.83;;;22.70;44.20;;;;;;5047752;28;20025;-75
2021/05/23 10:27:24;;;;;;;5.97;2.20;;;23.00;43.50;;;;;;5051032;28;20164;-70
2021/05/23 10:29:56;;;;;;;6.97;2.28;;;23.10;42.40;;;;;;5046340;28;20129;-75
2021/05/23 10:32:29;;;;;;;6.27;2.40;;;22.90;43.10;;;;;;5054958;28;20042;-78
2021/05/23 10:34:55;;;;;;;6.10;2.10;;;22.60;42.90;;;;;;5046938;28;20294;-74
2021/05/23 10:37:29;;;;;;;5.45;2.15;;;22.40;43.80;;;;;;5048707;28;20029;-72
2021/05/23 10:39:56;;;;;;;7.65;2.63;;;22.30;45.00;;;;;;5045267;28;20033;-69
2021/05/23 10:42:24;;;;;;;5.10;2.75;;;22.50;43.90;;;;;;5044759;28;20056;-70
2021/05/23 10:44:51;;;;;;;8.20;2.80;;;22.40;44.50;;;;;;5045035;28;20102;-70
2021/05/23 10:47:22;;;;;;;6.50;2.63;;;22.20;43.90;;;;;;5051061;28;20044;-69
2021/05/23 10:50:03;;;;;;;6.97;2.42;;;21.70;44.60;;;;;;5048321;28;20074;-69
2021/05/23 10:52:32;;;;;;;6.03;2.78;;;21.20;45.50;;;;;;5062381;28;20044;-70
2021/05/23 10:55:14;;;;;;;6.82;3.20;;;20.90;46.00;;;;;;5053338;28;20356;-70
2021/05/23 10:57:48;;;;;;;6.53;3.38;;;20.50;46.90;;;;;;5047697;28;20032;-71
2021/05/23 11:00:23;;;;;;;9.25;3.20;;;20.40;46.70;;;;;;5043424;28;20128;-71
2021/05/23 11:02:56;;;;;;;7.65;2.63;;;20.30;46.20;;;;;;5045383;28;20631;-69
2021/05/23 11:05:30;;;;;;;7.75;2.65;;;20.30;46.40;;;;;;5044892;28;20229;-71
2021/05/23 11:07:59;;;;;;;7.00;2.53;;;20.30;46.00;;;;;;5044621;28;20033;-73
2021/05/23 11:10:31;;;;;;;8.27;2.72;;;20.10;45.80;;;;;;5046187;28;20033;-70
2021/05/23 11:12:59;;;;;;;9.43;2.80;;;20.00;45.70;;;;;;5049994;28;20116;-70
2021/05/23 11:15:26;;;;;;;6.07;2.20;;;19.90;45.70;;;;;;5042687;28;20054;-71
2021/05/23 11:17:54;;;;;;;6.97;2.72;;;19.90;46.10;;;;;;5047460;28;20135;-71
2021/05/23 11:20:25;;;;;;;6.30;2.70;;;19.90;45.80;;;;;;5052842;28;20608;-72
2021/05/23 11:23:03;;;;;;;5.70;2.63;;;19.90;45.70;;;;;;5062172;28;20120;-70
2021/05/23 11:25:30;;;;;;;7.95;2.85;;;19.90;45.10;;;;;;5047093;28;20033;-69
2021/05/23 11:27:58;;;;;;;6.18;2.00;;;20.00;44.30;;;;;;5043912;28;20033;-72
2021/05/23 11:30:26;;;;;;;6.85;2.22;;;20.10;45.20;;;;;;5047820;28;20226;-72
2021/05/23 11:33:03;;;;;;;8.82;2.83;;;20.30;44.50;;;;;;5052959;28;20111;-73
2021/05/23 11:35:29;;;;;;;5.38;2.00;;;20.40;43.00;;;;;;5042337;28;20150;-72
2021/05/23 11:37:56;;;;;;;6.18;2.20;;;20.50;43.10;;;;;;5047479;28;20415;-73
2021/05/23 11:40:22;;;;;;;5.57;2.20;;;20.60;43.20;;;;;;5048704;28;20033;-68
2021/05/23 11:42:49;;;;;;;5.72;2.05;;;20.70;42.50;;;;;;5043148;28;21285;-70
2021/05/23 11:45:20;;;;;;;4.70;2.10;;;20.80;42.70;;;;;;5044757;28;20024;-74
2021/05/23 11:47:48;;;;;;;7.35;3.28;;;21.00;42.80;;;;;;5045545;28;20043;-76
2021/05/23 11:50:28;;;;;;;6.80;2.63;;;21.10;42.20;;;;;;5049128;28;20036;-74
2021/05/23 11:52:56;;;;;;;5.28;2.25;;;21.20;43.50;;;;;;5051838;28;20486;-74
2021/05/23 11:55:24;;;;;;;6.45;2.22;;;21.40;42.60;;;;;;5047462;28;21016;-73
2021/05/23 11:57:51;;;;;;;8.27;2.70;;;21.60;42.50;;;;;;5049311;28;20025;-72
2021/05/23 12:00:19;;;;;;;9.73;2.88;;;21.60;41.90;;;;;;5038692;28;21047;-74
2021/05/23 12:02:55;;;;;;;7.82;2.53;;;21.60;42.00;;;;;;5047469;28;20063;-74
2021/05/23 12:05:22;;;;;;;6.22;2.67;;;21.40;41.00;;;;;;5059237;28;20032;-74
2021/05/23 12:07:50;;;;;;;4.93;2.20;;;21.50;41.40;;;;;;5049140;28;20033;-70
2021/05/23 12:10:22;;;;;;;4.55;1.83;;;21.60;40.10;;;;;;5064589;28;20482;-74
2021/05/23 12:12:51;;;;;;;5.88;2.03;;;21.70;39.90;;;;;;5061921;28;20039;-74
2021/05/23 12:15:19;;;;;;;5.82;2.10;;;21.80;38.40;;;;;;5054556;28;20111;-74
2021/05/23 12:17:55;;;;;;;7.85;2.67;;;21.70;39.30;;;;;;5055620;28;20053;-73
2021/05/23 12:20:22;;;;;;;7.75;2.00;;;21.50;39.00;;;;;;5046212;28;20478;-72
2021/05/23 12:22:53;;;;;;;7.70;2.33;;;21.40;39.50;;;;;;5044134;28;20024;-73
2021/05/23 12:25:21;;;;;;;4.40;2.00;;;21.40;39.70;;;;;;5046866;28;20050;-72
2021/05/23 12:27:50;;;;;;;5.82;2.20;;;21.40;39.20;;;;;;5049340;28;20033;-72
2021/05/23 12:30:24;;;;;;;5.40;1.98;;;21.30;39.20;;;;;;5045222;28;20191;-73
2021/05/23 12:33:08;;;;;;;6.63;2.60;;;21.10;39.70;;;;;;5049616;28;20075;-74
2021/05/23 12:35:37;;;;;;;;;;;21.00;40.20;;;;;;5048680;28;20029;-73
2021/05/23 12:38:04;;;;;;;8.50;2.58;;;21.10;40.90;;;;;;5048801;28;19952;-75
2021/05/23 12:40:45;;;;;;;4.63;1.88;;;21.20;40.40;;;;;;5047652;28;20020;-74